sensor_id;sensor_type;location;lat;lon;timestamp;P1;durP1;ratioP1;P2;durP2;ratioP2
17145;SDS011;8688;54.444;18.444;2023-04-28T00:00:58;8.03;;;2.87;;
17145;SDS011;8688;54.444;18.444;2023-04-28T00:03:26;7.30;;;2.67;;
17145;SDS011;8688;54.444;18.444;2023-04-28T00:05:53;5.27;;;2.47;;
17145;SDS011;8688;54.444;18.444;2023-04-28T00:08:23;7.57;;;2.50;;
17145;SDS011;8688;54.444;18.444;2023-04-28T00:10:51;9.67;;;2.90;;
17145;SDS011;8688;54.444;18.444;2023-04-28T00:13:19;5.57;;;2.70;;
17145;SDS011;8688;54.444;18.444;2023-04-28T00:15:46;7.37;;;2.60;;
17145;SDS011;8688;54.444;18.444;2023-04-28T00:18:17;13.57;;;5.50;;
17145;SDS011;8688;54.444;18.444;2023-04-28T00:20:44;7.93;;;3.70;;
17145;SDS011;8688;54.444;18.444;2023-04-28T00:23:12;10.63;;;4.33;;
17145;SDS011;8688;54.444;18.444;2023-04-28T00:25:43;13.73;;;6.17;;
17145;SDS011;8688;54.444;18.444;2023-04-28T00:28:16;10.47;;;4.70;;
17145;SDS011;8688;54.444;18.444;2023-04-28T00:30:43;9.53;;;4.27;;
17145;SDS011;8688;54.444;18.444;2023-04-28T00:33:11;8.60;;;3.40;;
17145;SDS011;8688;54.444;18.444;2023-04-28T00:35:39;8.73;;;3.83;;
17145;SDS011;8688;54.444;18.444;2023-04-28T00:38:06;11.57;;;3.93;;
17145;SDS011;8688;54.444;18.444;2023-04-28T00:40:34;6.30;;;3.13;;
17145;SDS011;8688;54.444;18.444;2023-04-28T00:43:03;7.57;;;2.80;;
17145;SDS011;8688;54.444;18.444;2023-04-28T00:45:31;7.13;;;3.10;;
17145;SDS011;8688;54.444;18.444;2023-04-28T00:47:58;5.27;;;2.70;;
17145;SDS011;8688;54.444;18.444;2023-04-28T00:50:28;10.30;;;2.80;;
17145;SDS011;8688;54.444;18.444;2023-04-28T00:52:56;6.57;;;2.90;;
17145;SDS011;8688;54.444;18.444;2023-04-28T00:55:24;11.53;;;3.83;;
17145;SDS011;8688;54.444;18.444;2023-04-28T00:57:54;6.63;;;2.87;;
17145;SDS011;8688;54.444;18.444;2023-04-28T01:00:24;6.57;;;2.77;;
17145;SDS011;8688;54.444;18.444;2023-04-28T01:02:52;4.77;;;2.27;;
17145;SDS011;8688;54.444;18.444;2023-04-28T01:05:21;6.53;;;2.70;;
17145;SDS011;8688;54.444;18.444;2023-04-28T01:07:50;7.47;;;2.60;;
17145;SDS011;8688;54.444;18.444;2023-04-28T01:10:18;6.77;;;2.70;;
17145;SDS011;8688;54.444;18.444;2023-04-28T01:12:46;13.10;;;6.63;;
17145;SDS011;8688;54.444;18.444;2023-04-28T01:15:15;15.53;;;8.60;;
17145;SDS011;8688;54.444;18.444;2023-04-28T01:17:45;18.27;;;11.60;;
17145;SDS011;8688;54.444;18.444;2023-04-28T01:20:13;21.17;;;13.67;;
17145;SDS011;8688;54.444;18.444;2023-04-28T01:22:40;27.13;;;15.23;;
17145;SDS011;8688;54.444;18.444;2023-04-28T01:25:09;24.67;;;16.30;;
17145;SDS011;8688;54.444;18.444;2023-04-28T01:27:37;23.33;;;13.40;;
17145;SDS011;8688;54.444;18.444;2023-04-28T01:30:05;18.70;;;11.80;;
17145;SDS011;8688;54.444;18.444;2023-04-28T01:32:34;14.33;;;8.10;;
17145;SDS011;8688;54.444;18.444;2023-04-28T01:35:01;13.13;;;7.20;;
17145;SDS011;8688;54.444;18.444;2023-04-28T01:37:29;13.37;;;7.03;;
17145;SDS011;8688;54.444;18.444;2023-04-28T01:39:56;12.30;;;6.17;;
17145;SDS011;8688;54.444;18.444;2023-04-28T01:42:25;11.83;;;5.40;;
17145;SDS011;8688;54.444;18.444;2023-04-28T01:44:53;10.33;;;5.03;;
17145;SDS011;8688;54.444;18.444;2023-04-28T01:47:20;13.73;;;5.20;;
17145;SDS011;8688;54.444;18.444;2023-04-28T01:49:48;18.17;;;6.27;;
17145;SDS011;8688;54.444;18.444;2023-04-28T01:52:16;13.83;;;5.93;;
17145;SDS011;8688;54.444;18.444;2023-04-28T01:54:47;9.53;;;5.30;;
17145;SDS011;8688;54.444;18.444;2023-04-28T01:57:14;12.50;;;5.00;;
17145;SDS011;8688;54.444;18.444;2023-04-28T01:59:43;15.50;;;5.47;;
17145;SDS011;8688;54.444;18.444;2023-04-28T02:02:11;13.23;;;5.23;;
17145;SDS011;8688;54.444;18.444;2023-04-28T02:04:38;14.47;;;4.83;;
17145;SDS011;8688;54.444;18.444;2023-04-28T02:07:06;11.93;;;4.93;;
17145;SDS011;8688;54.444;18.444;2023-04-28T02:09:34;10.63;;;4.90;;
17145;SDS011;8688;54.444;18.444;2023-04-28T02:12:01;10.50;;;4.30;;
17145;SDS011;8688;54.444;18.444;2023-04-28T02:14:29;13.40;;;3.90;;
17145;SDS011;8688;54.444;18.444;2023-04-28T02:16:59;14.67;;;4.70;;
17145;SDS011;8688;54.444;18.444;2023-04-28T02:19:27;6.47;;;3.40;;
17145;SDS011;8688;54.444;18.444;2023-04-28T02:21:54;10.13;;;4.30;;
17145;SDS011;8688;54.444;18.444;2023-04-28T02:24:22;7.37;;;4.03;;
17145;SDS011;8688;54.444;18.444;2023-04-28T02:26:49;8.23;;;3.83;;
17145;SDS011;8688;54.444;18.444;2023-04-28T02:29:17;6.43;;;2.90;;
17145;SDS011;8688;54.444;18.444;2023-04-28T02:31:45;4.73;;;2.20;;
17145;SDS011;8688;54.444;18.444;2023-04-28T02:34:14;10.73;;;2.67;;
17145;SDS011;8688;54.444;18.444;2023-04-28T02:36:42;5.33;;;2.30;;
17145;SDS011;8688;54.444;18.444;2023-04-28T02:39:09;10.13;;;2.57;;
17145;SDS011;8688;54.444;18.444;2023-04-28T02:41:37;6.30;;;2.50;;
17145;SDS011;8688;54.444;18.444;2023-04-28T02:44:04;7.13;;;2.07;;
17145;SDS011;8688;54.444;18.444;2023-04-28T02:46:32;7.90;;;2.30;;
17145;SDS011;8688;54.444;18.444;2023-04-28T02:48:59;7.77;;;2.20;;
17145;SDS011;8688;54.444;18.444;2023-04-28T02:51:28;7.70;;;2.80;;
17145;SDS011;8688;54.444;18.444;2023-04-28T02:53:55;5.10;;;2.60;;
17145;SDS011;8688;54.444;18.444;2023-04-28T02:56:23;7.70;;;3.00;;
17145;SDS011;8688;54.444;18.444;2023-04-28T02:58:51;4.87;;;2.97;;
17145;SDS011;8688;54.444;18.444;2023-04-28T03:01:18;6.93;;;3.30;;
17145;SDS011;8688;54.444;18.444;2023-04-28T03:03:46;6.80;;;2.90;;
17145;SDS011;8688;54.444;18.444;2023-04-28T03:06:13;6.87;;;3.10;;
17145;SDS011;8688;54.444;18.444;2023-04-28T03:08:44;8.27;;;2.47;;
17145;SDS011;8688;54.444;18.444;2023-04-28T03:11:12;6.70;;;2.63;;
17145;SDS011;8688;54.444;18.444;2023-04-28T03:13:41;7.60;;;2.57;;
17145;SDS011;8688;54.444;18.444;2023-04-28T03:16:09;5.07;;;2.10;;
17145;SDS011;8688;54.444;18.444;2023-04-28T03:18:36;6.23;;;2.70;;
17145;SDS011;8688;54.444;18.444;2023-04-28T03:21:04;5.60;;;2.00;;
17145;SDS011;8688;54.444;18.444;2023-04-28T03:23:31;4.57;;;2.50;;
17145;SDS011;8688;54.444;18.444;2023-04-28T03:26:00;6.40;;;2.73;;
17145;SDS011;8688;54.444;18.444;2023-04-28T03:28:28;6.47;;;3.20;;
17145;SDS011;8688;54.444;18.444;2023-04-28T03:30:56;6.73;;;2.67;;
17145;SDS011;8688;54.444;18.444;2023-04-28T03:33:25;8.87;;;3.70;;
17145;SDS011;8688;54.444;18.444;2023-04-28T03:35:53;12.40;;;3.90;;
17145;SDS011;8688;54.444;18.444;2023-04-28T03:38:20;9.87;;;3.77;;
17145;SDS011;8688;54.444;18.444;2023-04-28T03:40:48;10.50;;;4.70;;
17145;SDS011;8688;54.444;18.444;2023-04-28T03:43:17;11.00;;;5.10;;
17145;SDS011;8688;54.444;18.444;2023-04-28T03:45:44;11.23;;;4.90;;
17145;SDS011;8688;54.444;18.444;2023-04-28T03:48:13;13.30;;;5.20;;
17145;SDS011;8688;54.444;18.444;2023-04-28T03:50:41;11.47;;;4.77;;
17145;SDS011;8688;54.444;18.444;2023-04-28T03:53:09;13.33;;;4.87;;
17145;SDS011;8688;54.444;18.444;2023-04-28T03:55:37;9.83;;;3.97;;
17145;SDS011;8688;54.444;18.444;2023-04-28T03:58:05;11.50;;;3.77;;
17145;SDS011;8688;54.444;18.444;2023-04-28T04:00:34;8.20;;;3.80;;
17145;SDS011;8688;54.444;18.444;2023-04-28T04:03:01;15.47;;;3.93;;
17145;SDS011;8688;54.444;18.444;2023-04-28T04:05:29;6.60;;;3.40;;
17145;SDS011;8688;54.444;18.444;2023-04-28T04:07:56;10.07;;;3.70;;
17145;SDS011;8688;54.444;18.444;2023-04-28T04:10:24;9.47;;;3.67;;
17145;SDS011;8688;54.444;18.444;2023-04-28T04:12:52;10.23;;;3.10;;
17145;SDS011;8688;54.444;18.444;2023-04-28T04:15:19;7.17;;;3.37;;
17145;SDS011;8688;54.444;18.444;2023-04-28T04:17:48;6.27;;;2.93;;
17145;SDS011;8688;54.444;18.444;2023-04-28T04:20:16;6.33;;;3.27;;
17145;SDS011;8688;54.444;18.444;2023-04-28T04:22:43;8.00;;;3.10;;
17145;SDS011;8688;54.444;18.444;2023-04-28T04:25:13;6.63;;;3.20;;
17145;SDS011;8688;54.444;18.444;2023-04-28T04:27:41;5.60;;;2.70;;
17145;SDS011;8688;54.444;18.444;2023-04-28T04:30:08;6.07;;;2.87;;
17145;SDS011;8688;54.444;18.444;2023-04-28T04:32:36;8.17;;;2.73;;
17145;SDS011;8688;54.444;18.444;2023-04-28T04:35:05;8.60;;;3.13;;
17145;SDS011;8688;54.444;18.444;2023-04-28T04:37:35;7.53;;;2.73;;
17145;SDS011;8688;54.444;18.444;2023-04-28T04:40:03;9.23;;;2.90;;
17145;SDS011;8688;54.444;18.444;2023-04-28T04:42:32;4.37;;;2.47;;
17145;SDS011;8688;54.444;18.444;2023-04-28T04:44:59;6.53;;;2.50;;
17145;SDS011;8688;54.444;18.444;2023-04-28T04:47:26;10.17;;;3.23;;
17145;SDS011;8688;54.444;18.444;2023-04-28T04:49:54;5.67;;;2.90;;
17145;SDS011;8688;54.444;18.444;2023-04-28T04:52:23;6.33;;;3.13;;
17145;SDS011;8688;54.444;18.444;2023-04-28T04:54:50;9.80;;;3.20;;
17145;SDS011;8688;54.444;18.444;2023-04-28T04:57:18;5.77;;;3.10;;
17145;SDS011;8688;54.444;18.444;2023-04-28T04:59:45;7.27;;;3.27;;
17145;SDS011;8688;54.444;18.444;2023-04-28T05:02:13;10.20;;;4.00;;
17145;SDS011;8688;54.444;18.444;2023-04-28T05:04:40;8.13;;;3.13;;
17145;SDS011;8688;54.444;18.444;2023-04-28T05:07:08;6.50;;;3.07;;
17145;SDS011;8688;54.444;18.444;2023-04-28T05:09:36;7.97;;;2.97;;
17145;SDS011;8688;54.444;18.444;2023-04-28T05:12:04;10.17;;;3.87;;
17145;SDS011;8688;54.444;18.444;2023-04-28T05:14:32;13.30;;;4.40;;
17145;SDS011;8688;54.444;18.444;2023-04-28T05:16:59;11.00;;;4.80;;
17145;SDS011;8688;54.444;18.444;2023-04-28T05:19:27;13.13;;;4.33;;
17145;SDS011;8688;54.444;18.444;2023-04-28T05:21:54;13.83;;;4.70;;
17145;SDS011;8688;54.444;18.444;2023-04-28T05:24:22;10.90;;;4.10;;
17145;SDS011;8688;54.444;18.444;2023-04-28T05:26:51;7.03;;;3.20;;
17145;SDS011;8688;54.444;18.444;2023-04-28T05:29:18;7.27;;;3.03;;
17145;SDS011;8688;54.444;18.444;2023-04-28T05:31:46;8.63;;;3.30;;
17145;SDS011;8688;54.444;18.444;2023-04-28T05:34:13;10.93;;;3.37;;
17145;SDS011;8688;54.444;18.444;2023-04-28T05:36:41;10.73;;;4.00;;
17145;SDS011;8688;54.444;18.444;2023-04-28T05:39:08;7.43;;;3.40;;
17145;SDS011;8688;54.444;18.444;2023-04-28T05:41:36;8.80;;;3.97;;
17145;SDS011;8688;54.444;18.444;2023-04-28T05:44:05;9.00;;;3.27;;
17145;SDS011;8688;54.444;18.444;2023-04-28T05:46:32;11.20;;;3.87;;
17145;SDS011;8688;54.444;18.444;2023-04-28T05:49:00;8.53;;;4.07;;
17145;SDS011;8688;54.444;18.444;2023-04-28T05:51:27;8.43;;;3.60;;
17145;SDS011;8688;54.444;18.444;2023-04-28T05:53:55;11.00;;;3.57;;
17145;SDS011;8688;54.444;18.444;2023-04-28T05:56:22;7.40;;;3.00;;
17145;SDS011;8688;54.444;18.444;2023-04-28T05:58:51;9.47;;;3.03;;
17145;SDS011;8688;54.444;18.444;2023-04-28T06:01:21;6.57;;;3.10;;
17145;SDS011;8688;54.444;18.444;2023-04-28T06:03:48;6.87;;;3.07;;
17145;SDS011;8688;54.444;18.444;2023-04-28T06:06:17;6.70;;;3.20;;
17145;SDS011;8688;54.444;18.444;2023-04-28T06:08:44;9.67;;;3.37;;
17145;SDS011;8688;54.444;18.444;2023-04-28T06:11:13;9.20;;;3.30;;
17145;SDS011;8688;54.444;18.444;2023-04-28T06:13:41;8.83;;;2.97;;
17145;SDS011;8688;54.444;18.444;2023-04-28T06:16:08;8.30;;;2.97;;
17145;SDS011;8688;54.444;18.444;2023-04-28T06:18:37;4.87;;;2.50;;
17145;SDS011;8688;54.444;18.444;2023-04-28T06:21:05;7.47;;;3.03;;
17145;SDS011;8688;54.444;18.444;2023-04-28T06:23:32;4.13;;;2.20;;
17145;SDS011;8688;54.444;18.444;2023-04-28T06:26:00;5.10;;;2.47;;
17145;SDS011;8688;54.444;18.444;2023-04-28T06:28:27;10.87;;;2.47;;
17145;SDS011;8688;54.444;18.444;2023-04-28T06:30:55;6.50;;;2.33;;
17145;SDS011;8688;54.444;18.444;2023-04-28T06:33:24;8.27;;;2.33;;
17145;SDS011;8688;54.444;18.444;2023-04-28T06:35:53;4.53;;;2.10;;
17145;SDS011;8688;54.444;18.444;2023-04-28T06:38:20;6.27;;;1.97;;
17145;SDS011;8688;54.444;18.444;2023-04-28T06:40:48;7.37;;;1.80;;
17145;SDS011;8688;54.444;18.444;2023-04-28T06:43:16;4.90;;;1.93;;
17145;SDS011;8688;54.444;18.444;2023-04-28T06:45:43;3.23;;;1.60;;
17145;SDS011;8688;54.444;18.444;2023-04-28T06:48:11;4.40;;;1.83;;
17145;SDS011;8688;54.444;18.444;2023-04-28T06:50:38;4.63;;;1.70;;
17145;SDS011;8688;54.444;18.444;2023-04-28T06:53:07;4.10;;;1.77;;
17145;SDS011;8688;54.444;18.444;2023-04-28T06:55:35;2.93;;;1.43;;
17145;SDS011;8688;54.444;18.444;2023-04-28T06:58:02;4.77;;;1.60;;
17145;SDS011;8688;54.444;18.444;2023-04-28T07:00:29;7.60;;;1.70;;
17145;SDS011;8688;54.444;18.444;2023-04-28T07:02:57;6.37;;;1.70;;
17145;SDS011;8688;54.444;18.444;2023-04-28T07:05:25;4.20;;;1.87;;
17145;SDS011;8688;54.444;18.444;2023-04-28T07:07:53;3.72;;;2.00;;
17145;SDS011;8688;54.444;18.444;2023-04-28T07:10:22;5.23;;;1.70;;
17145;SDS011;8688;54.444;18.444;2023-04-28T07:12:49;5.97;;;2.00;;
17145;SDS011;8688;54.444;18.444;2023-04-28T07:15:17;6.40;;;1.70;;
17145;SDS011;8688;54.444;18.444;2023-04-28T07:17:48;4.43;;;1.80;;
17145;SDS011;8688;54.444;18.444;2023-04-28T07:20:15;7.18;;;1.77;;
17145;SDS011;8688;54.444;18.444;2023-04-28T07:22:43;5.72;;;1.80;;
17145;SDS011;8688;54.444;18.444;2023-04-28T07:25:10;5.10;;;1.50;;
17145;SDS011;8688;54.444;18.444;2023-04-28T07:27:39;4.15;;;1.80;;
17145;SDS011;8688;54.444;18.444;2023-04-28T07:30:07;4.68;;;1.50;;
17145;SDS011;8688;54.444;18.444;2023-04-28T07:32:35;7.72;;;1.60;;
17145;SDS011;8688;54.444;18.444;2023-04-28T07:35:02;4.13;;;1.60;;
17145;SDS011;8688;54.444;18.444;2023-04-28T07:37:30;2.78;;;1.65;;
17145;SDS011;8688;54.444;18.444;2023-04-28T07:39:58;3.55;;;1.77;;
17145;SDS011;8688;54.444;18.444;2023-04-28T07:42:25;3.15;;;1.33;;
17145;SDS011;8688;54.444;18.444;2023-04-28T07:44:54;5.18;;;1.23;;
17145;SDS011;8688;54.444;18.444;2023-04-28T07:47:23;4.88;;;1.70;;
17145;SDS011;8688;54.444;18.444;2023-04-28T07:49:51;4.80;;;1.70;;
17145;SDS011;8688;54.444;18.444;2023-04-28T07:52:20;6.38;;;1.83;;
17145;SDS011;8688;54.444;18.444;2023-04-28T07:54:48;4.32;;;1.65;;
17145;SDS011;8688;54.444;18.444;2023-04-28T07:57:16;5.00;;;1.60;;
17145;SDS011;8688;54.444;18.444;2023-04-28T07:59:43;6.10;;;2.53;;
17145;SDS011;8688;54.444;18.444;2023-04-28T08:02:12;5.18;;;1.45;;
17145;SDS011;8688;54.444;18.444;2023-04-28T08:04:40;5.20;;;1.65;;
17145;SDS011;8688;54.444;18.444;2023-04-28T08:07:08;3.65;;;1.75;;
17145;SDS011;8688;54.444;18.444;2023-04-28T08:09:35;6.30;;;1.77;;
17145;SDS011;8688;54.444;18.444;2023-04-28T08:12:04;5.65;;;1.60;;
17145;SDS011;8688;54.444;18.444;2023-04-28T08:14:31;4.53;;;1.80;;
17145;SDS011;8688;54.444;18.444;2023-04-28T08:16:59;5.13;;;2.10;;
17145;SDS011;8688;54.444;18.444;2023-04-28T08:19:28;3.88;;;2.05;;
17145;SDS011;8688;54.444;18.444;2023-04-28T08:21:55;6.38;;;1.70;;
17145;SDS011;8688;54.444;18.444;2023-04-28T08:24:29;4.15;;;1.70;;
17145;SDS011;8688;54.444;18.444;2023-04-28T08:26:59;4.15;;;1.50;;
17145;SDS011;8688;54.444;18.444;2023-04-28T08:29:27;4.70;;;1.92;;
17145;SDS011;8688;54.444;18.444;2023-04-28T08:31:55;6.40;;;1.85;;
17145;SDS011;8688;54.444;18.444;2023-04-28T08:34:23;3.53;;;1.80;;
17145;SDS011;8688;54.444;18.444;2023-04-28T08:36:52;4.43;;;1.80;;
17145;SDS011;8688;54.444;18.444;2023-04-28T08:39:20;4.18;;;1.63;;
17145;SDS011;8688;54.444;18.444;2023-04-28T08:41:48;3.95;;;1.52;;
17145;SDS011;8688;54.444;18.444;2023-04-28T08:44:15;3.65;;;2.03;;
17145;SDS011;8688;54.444;18.444;2023-04-28T08:46:43;3.50;;;1.83;;
17145;SDS011;8688;54.444;18.444;2023-04-28T08:49:12;4.00;;;1.52;;
17145;SDS011;8688;54.444;18.444;2023-04-28T08:51:43;3.70;;;1.60;;
17145;SDS011;8688;54.444;18.444;2023-04-28T08:54:14;5.47;;;1.50;;
17145;SDS011;8688;54.444;18.444;2023-04-28T08:56:44;6.05;;;1.77;;
17145;SDS011;8688;54.444;18.444;2023-04-28T08:59:12;5.32;;;2.10;;
17145;SDS011;8688;54.444;18.444;2023-04-28T09:01:40;5.60;;;1.80;;
17145;SDS011;8688;54.444;18.444;2023-04-28T09:04:07;6.38;;;1.55;;
17145;SDS011;8688;54.444;18.444;2023-04-28T09:06:36;3.53;;;1.77;;
17145;SDS011;8688;54.444;18.444;2023-04-28T09:11:55;2.50;;;1.65;;
17145;SDS011;8688;54.444;18.444;2023-04-28T09:14:25;7.85;;;2.00;;
17145;SDS011;8688;54.444;18.444;2023-04-28T09:16:53;10.90;;;2.13;;
17145;SDS011;8688;54.444;18.444;2023-04-28T09:19:22;9.43;;;1.83;;
17145;SDS011;8688;54.444;18.444;2023-04-28T09:21:50;7.72;;;1.80;;
17145;SDS011;8688;54.444;18.444;2023-04-28T09:24:30;3.03;;;1.67;;
17145;SDS011;8688;54.444;18.444;2023-04-28T09:26:58;2.30;;;1.73;;
17145;SDS011;8688;54.444;18.444;2023-04-28T09:29:26;6.07;;;2.15;;
17145;SDS011;8688;54.444;18.444;2023-04-28T09:31:54;7.97;;;1.75;;
17145;SDS011;8688;54.444;18.444;2023-04-28T09:34:42;4.63;;;1.90;;
17145;SDS011;8688;54.444;18.444;2023-04-28T09:37:14;5.45;;;2.00;;
17145;SDS011;8688;54.444;18.444;2023-04-28T09:39:44;5.35;;;1.67;;
17145;SDS011;8688;54.444;18.444;2023-04-28T09:42:32;5.63;;;1.70;;
17145;SDS011;8688;54.444;18.444;2023-04-28T09:45:00;9.93;;;2.10;;
17145;SDS011;8688;54.444;18.444;2023-04-28T09:47:28;4.53;;;1.65;;
17145;SDS011;8688;54.444;18.444;2023-04-28T09:49:58;2.42;;;1.48;;
17145;SDS011;8688;54.444;18.444;2023-04-28T09:52:27;3.28;;;1.75;;
17145;SDS011;8688;54.444;18.444;2023-04-28T09:54:56;8.05;;;1.63;;
17145;SDS011;8688;54.444;18.444;2023-04-28T09:57:24;2.70;;;1.60;;
17145;SDS011;8688;54.444;18.444;2023-04-28T09:59:55;7.10;;;1.75;;
17145;SDS011;8688;54.444;18.444;2023-04-28T10:02:24;6.30;;;1.90;;
17145;SDS011;8688;54.444;18.444;2023-04-28T10:04:52;2.58;;;1.70;;
17145;SDS011;8688;54.444;18.444;2023-04-28T10:07:20;4.65;;;1.58;;
17145;SDS011;8688;54.444;18.444;2023-04-28T10:09:48;5.97;;;2.00;;
17145;SDS011;8688;54.444;18.444;2023-04-28T10:12:18;2.72;;;1.80;;
17145;SDS011;8688;54.444;18.444;2023-04-28T10:14:47;4.10;;;1.85;;
17145;SDS011;8688;54.444;18.444;2023-04-28T10:17:19;3.67;;;1.90;;
17145;SDS011;8688;54.444;18.444;2023-04-28T10:19:49;2.78;;;1.60;;
17145;SDS011;8688;54.444;18.444;2023-04-28T10:22:23;6.70;;;2.00;;
17145;SDS011;8688;54.444;18.444;2023-04-28T10:25:16;6.78;;;2.00;;
17145;SDS011;8688;54.444;18.444;2023-04-28T10:27:53;4.20;;;1.90;;
17145;SDS011;8688;54.444;18.444;2023-04-28T10:30:21;7.25;;;1.80;;
17145;SDS011;8688;54.444;18.444;2023-04-28T10:35:50;7.68;;;2.00;;
17145;SDS011;8688;54.444;18.444;2023-04-28T10:38:18;9.40;;;1.73;;
17145;SDS011;8688;54.444;18.444;2023-04-28T10:40:47;6.53;;;1.98;;
17145;SDS011;8688;54.444;18.444;2023-04-28T10:46:07;4.22;;;2.95;;
17145;SDS011;8688;54.444;18.444;2023-04-28T10:48:51;6.70;;;4.30;;
17145;SDS011;8688;54.444;18.444;2023-04-28T10:51:25;9.73;;;4.40;;
17145;SDS011;8688;54.444;18.444;2023-04-28T10:59:47;5.88;;;1.98;;
17145;SDS011;8688;54.444;18.444;2023-04-28T11:05:11;6.43;;;1.95;;
17145;SDS011;8688;54.444;18.444;2023-04-28T11:07:39;3.53;;;2.08;;
17145;SDS011;8688;54.444;18.444;2023-04-28T11:10:07;3.25;;;1.90;;
17145;SDS011;8688;54.444;18.444;2023-04-28T11:12:34;5.95;;;2.20;;
17145;SDS011;8688;54.444;18.444;2023-04-28T11:15:13;8.05;;;2.35;;
17145;SDS011;8688;54.444;18.444;2023-04-28T11:17:41;8.50;;;2.10;;
17145;SDS011;8688;54.444;18.444;2023-04-28T11:20:11;9.73;;;2.13;;
17145;SDS011;8688;54.444;18.444;2023-04-28T11:22:39;4.57;;;1.70;;
17145;SDS011;8688;54.444;18.444;2023-04-28T11:25:07;4.93;;;1.70;;
17145;SDS011;8688;54.444;18.444;2023-04-28T11:27:35;4.43;;;2.47;;
17145;SDS011;8688;54.444;18.444;2023-04-28T11:30:17;6.00;;;2.85;;
17145;SDS011;8688;54.444;18.444;2023-04-28T11:32:49;5.72;;;2.17;;
17145;SDS011;8688;54.444;18.444;2023-04-28T11:35:17;5.57;;;2.08;;
17145;SDS011;8688;54.444;18.444;2023-04-28T11:37:44;4.28;;;1.70;;
17145;SDS011;8688;54.444;18.444;2023-04-28T11:40:12;5.90;;;2.25;;
17145;SDS011;8688;54.444;18.444;2023-04-28T11:42:45;3.55;;;1.88;;
17145;SDS011;8688;54.444;18.444;2023-04-28T11:45:13;7.15;;;3.03;;
17145;SDS011;8688;54.444;18.444;2023-04-28T11:47:42;5.07;;;2.63;;
17145;SDS011;8688;54.444;18.444;2023-04-28T11:50:10;3.00;;;2.15;;
17145;SDS011;8688;54.444;18.444;2023-04-28T11:52:46;4.75;;;2.00;;
17145;SDS011;8688;54.444;18.444;2023-04-28T11:55:15;8.23;;;2.38;;
17145;SDS011;8688;54.444;18.444;2023-04-28T11:57:43;5.78;;;2.50;;
17145;SDS011;8688;54.444;18.444;2023-04-28T12:00:11;2.95;;;1.80;;
17145;SDS011;8688;54.444;18.444;2023-04-28T12:02:44;3.42;;;1.90;;
17145;SDS011;8688;54.444;18.444;2023-04-28T12:05:12;3.05;;;1.83;;
17145;SDS011;8688;54.444;18.444;2023-04-28T12:07:40;5.05;;;2.30;;
17145;SDS011;8688;54.444;18.444;2023-04-28T12:10:11;4.50;;;1.98;;
17145;SDS011;8688;54.444;18.444;2023-04-28T12:12:40;5.53;;;2.00;;
17145;SDS011;8688;54.444;18.444;2023-04-28T12:15:08;5.57;;;1.85;;
17145;SDS011;8688;54.444;18.444;2023-04-28T12:17:36;3.38;;;1.73;;
17145;SDS011;8688;54.444;18.444;2023-04-28T12:20:08;2.83;;;1.98;;
17145;SDS011;8688;54.444;18.444;2023-04-28T12:22:43;5.68;;;2.10;;
17145;SDS011;8688;54.444;18.444;2023-04-28T12:25:12;3.45;;;1.90;;
17145;SDS011;8688;54.444;18.444;2023-04-28T12:27:40;4.22;;;1.90;;
17145;SDS011;8688;54.444;18.444;2023-04-28T12:30:24;5.95;;;2.20;;
17145;SDS011;8688;54.444;18.444;2023-04-28T12:32:51;6.22;;;2.10;;
17145;SDS011;8688;54.444;18.444;2023-04-28T12:35:21;7.68;;;2.25;;
17145;SDS011;8688;54.444;18.444;2023-04-28T12:37:49;4.35;;;2.13;;
17145;SDS011;8688;54.444;18.444;2023-04-28T12:40:17;3.70;;;2.30;;
17145;SDS011;8688;54.444;18.444;2023-04-28T12:42:45;4.93;;;2.03;;
17145;SDS011;8688;54.444;18.444;2023-04-28T12:45:12;3.40;;;1.95;;
17145;SDS011;8688;54.444;18.444;2023-04-28T12:47:40;4.80;;;2.03;;
17145;SDS011;8688;54.444;18.444;2023-04-28T12:50:08;4.05;;;1.85;;
17145;SDS011;8688;54.444;18.444;2023-04-28T12:52:37;4.47;;;2.17;;
17145;SDS011;8688;54.444;18.444;2023-04-28T12:55:08;4.03;;;1.85;;
17145;SDS011;8688;54.444;18.444;2023-04-28T12:57:35;5.40;;;2.22;;
17145;SDS011;8688;54.444;18.444;2023-04-28T13:00:03;4.97;;;2.00;;
17145;SDS011;8688;54.444;18.444;2023-04-28T13:02:32;5.03;;;2.17;;
17145;SDS011;8688;54.444;18.444;2023-04-28T13:04:59;5.15;;;2.10;;
17145;SDS011;8688;54.444;18.444;2023-04-28T13:07:30;8.85;;;2.50;;
17145;SDS011;8688;54.444;18.444;2023-04-28T13:10:00;6.20;;;2.03;;
17145;SDS011;8688;54.444;18.444;2023-04-28T13:12:27;6.63;;;1.98;;
17145;SDS011;8688;54.444;18.444;2023-04-28T13:14:55;3.85;;;2.00;;
17145;SDS011;8688;54.444;18.444;2023-04-28T13:17:22;7.38;;;2.30;;
17145;SDS011;8688;54.444;18.444;2023-04-28T13:19:51;4.80;;;2.67;;
17145;SDS011;8688;54.444;18.444;2023-04-28T13:22:18;6.57;;;2.97;;
17145;SDS011;8688;54.444;18.444;2023-04-28T13:24:46;10.45;;;3.00;;
17145;SDS011;8688;54.444;18.444;2023-04-28T13:27:17;5.43;;;2.42;;
17145;SDS011;8688;54.444;18.444;2023-04-28T13:29:45;9.23;;;2.90;;
17145;SDS011;8688;54.444;18.444;2023-04-28T13:32:12;7.32;;;2.80;;
17145;SDS011;8688;54.444;18.444;2023-04-28T13:34:40;5.97;;;2.92;;
17145;SDS011;8688;54.444;18.444;2023-04-28T13:37:07;11.45;;;2.97;;
17145;SDS011;8688;54.444;18.444;2023-04-28T13:39:34;7.30;;;2.83;;
17145;SDS011;8688;54.444;18.444;2023-04-28T13:42:02;4.50;;;2.60;;
17145;SDS011;8688;54.444;18.444;2023-04-28T13:44:32;5.15;;;2.55;;
17145;SDS011;8688;54.444;18.444;2023-04-28T13:46:59;6.63;;;2.97;;
17145;SDS011;8688;54.444;18.444;2023-04-28T13:49:27;6.15;;;2.97;;
17145;SDS011;8688;54.444;18.444;2023-04-28T13:51:55;4.78;;;2.15;;
17145;SDS011;8688;54.444;18.444;2023-04-28T13:54:22;5.93;;;2.60;;
17145;SDS011;8688;54.444;18.444;2023-04-28T13:56:50;7.15;;;2.92;;
17145;SDS011;8688;54.444;18.444;2023-04-28T13:59:17;6.45;;;2.78;;
17145;SDS011;8688;54.444;18.444;2023-04-28T14:01:46;10.63;;;3.10;;
17145;SDS011;8688;54.444;18.444;2023-04-28T14:04:16;11.85;;;2.90;;
17145;SDS011;8688;54.444;18.444;2023-04-28T14:06:44;5.22;;;2.53;;
17145;SDS011;8688;54.444;18.444;2023-04-28T14:09:11;13.02;;;3.50;;
17145;SDS011;8688;54.444;18.444;2023-04-28T14:11:39;7.82;;;3.00;;
17145;SDS011;8688;54.444;18.444;2023-04-28T14:14:06;6.18;;;3.05;;
17145;SDS011;8688;54.444;18.444;2023-04-28T14:16:34;7.75;;;3.53;;
17145;SDS011;8688;54.444;18.444;2023-04-28T14:19:02;9.40;;;3.70;;
17145;SDS011;8688;54.444;18.444;2023-04-28T14:21:31;8.40;;;3.28;;
17145;SDS011;8688;54.444;18.444;2023-04-28T14:23:58;6.72;;;3.40;;
17145;SDS011;8688;54.444;18.444;2023-04-28T14:26:26;6.13;;;3.30;;
17145;SDS011;8688;54.444;18.444;2023-04-28T14:28:53;9.15;;;3.42;;
17145;SDS011;8688;54.444;18.444;2023-04-28T14:31:21;7.00;;;3.10;;
17145;SDS011;8688;54.444;18.444;2023-04-28T14:33:49;5.70;;;2.88;;
17145;SDS011;8688;54.444;18.444;2023-04-28T14:36:17;6.07;;;2.70;;
17145;SDS011;8688;54.444;18.444;2023-04-28T14:38:45;5.60;;;3.33;;
17145;SDS011;8688;54.444;18.444;2023-04-28T14:41:12;14.77;;;3.45;;
17145;SDS011;8688;54.444;18.444;2023-04-28T14:43:40;6.65;;;3.20;;
17145;SDS011;8688;54.444;18.444;2023-04-28T14:46:07;9.93;;;3.05;;
17145;SDS011;8688;54.444;18.444;2023-04-28T14:48:36;5.95;;;3.22;;
17145;SDS011;8688;54.444;18.444;2023-04-28T14:51:04;7.63;;;2.90;;
17145;SDS011;8688;54.444;18.444;2023-04-28T14:53:33;5.80;;;2.80;;
17145;SDS011;8688;54.444;18.444;2023-04-28T14:56:00;5.10;;;2.65;;
17145;SDS011;8688;54.444;18.444;2023-04-28T14:58:28;4.57;;;2.70;;
17145;SDS011;8688;54.444;18.444;2023-04-28T15:00:55;7.38;;;2.72;;
17145;SDS011;8688;54.444;18.444;2023-04-28T15:03:23;6.22;;;3.00;;
17145;SDS011;8688;54.444;18.444;2023-04-28T15:05:51;5.85;;;3.13;;
17145;SDS011;8688;54.444;18.444;2023-04-28T15:08:19;8.27;;;3.47;;
17145;SDS011;8688;54.444;18.444;2023-04-28T15:10:48;6.10;;;2.83;;